General Aviation Weather

Text Reports

Enter one or more of the following location identifiers separated by a space:

Zip Code, Four-Character ICAO or Three-Character IATA airport codes.

METAR - Aviation Routine Weather Report
KMMK - Meriden, Connecticut
Updated at 10:24 PM GMT on October 22, 2014 (6:24 PM EDT):
SPECI KMMK 222224Z AUTO 01010G21KT 5SM -RA BR SCT013 BKN021 OVC029 11/09 A2982 RMK AO2 P0004 T01060089 TSNO
TAF - Terminal Area Forecast
KMMK - Meriden, Connecticut
Updated at 10:24 PM GMT on October 22, 2014 (6:24 PM EDT):
No TAF is currently available for this location.
Decoded:
No decoded TAF is available.
PIREP - Pilot Weather Report
KMMK - Meriden, Connecticut
Updated at 10:24 PM GMT on October 22, 2014 (6:24 PM EDT):
No PIREP is currently available for this location.
AIRMET - Airmens Meteorological Information
KMMK - Meriden, Connecticut
Updated at 10:24 PM GMT on October 22, 2014 (6:24 PM EDT):
No AIRMET is currently available for this location.
SIGMET - Significant Meteorological Information
KMMK - Meriden, Connecticut
Updated at 10:24 PM GMT on October 22, 2014 (6:24 PM EDT):
No SIGMET is currently available for this location.
NOTAM - Notice to Airmen
KMMK - Meriden, Connecticut
Updated at 10:24 PM GMT on October 22, 2014 (6:24 PM EDT):
No NOTAM is currently available for this location.
Forecast Area
KMMK - Meriden, Connecticut
Updated at 10:24 PM GMT on October 22, 2014 (6:24 PM EDT):
No NOTAM is currently available for this location.
Aviation Weather Maps